createdAt,value
2018-06-01T00:00:55.178Z,14.10
2018-06-01T00:03:23.790Z,13.17
2018-06-01T00:05:53.060Z,13.90
2018-06-01T00:08:21.953Z,14.47
2018-06-01T00:10:49.981Z,12.90
2018-06-01T00:13:18.320Z,14.03
2018-06-01T00:15:46.407Z,13.80
2018-06-01T00:18:14.377Z,13.87
2018-06-01T00:20:42.456Z,13.57
2018-06-01T00:23:10.423Z,13.17
2018-06-01T00:25:38.516Z,14.17
2018-06-01T00:28:06.790Z,13.30
2018-06-01T00:30:34.760Z,14.57
2018-06-01T00:33:03.761Z,14.70
2018-06-01T00:35:31.979Z,15.13
2018-06-01T00:38:00.023Z,13.70
2018-06-01T00:40:28.060Z,12.57
2018-06-01T00:42:56.014Z,12.87
2018-06-01T00:45:23.951Z,13.87
2018-06-01T00:47:52.005Z,14.23
2018-06-01T00:50:20.953Z,13.60
2018-06-01T00:52:48.884Z,14.43
2018-06-01T00:55:24.943Z,13.53
2018-06-01T00:57:53.011Z,14.77
2018-06-01T01:00:21.087Z,13.60
2018-06-01T01:02:49.160Z,14.20
2018-06-01T01:05:17.187Z,13.73
2018-06-01T01:07:45.212Z,13.80
2018-06-01T01:10:14.512Z,13.97
2018-06-01T01:12:42.574Z,14.13
2018-06-01T01:15:10.574Z,14.00
2018-06-01T01:17:38.639Z,15.27
2018-06-01T01:20:06.465Z,14.40
2018-06-01T01:22:34.444Z,14.87
2018-06-01T01:25:02.475Z,15.10
2018-06-01T01:27:30.546Z,15.27
2018-06-01T01:29:58.621Z,15.57
2018-06-01T01:32:26.921Z,14.80
2018-06-01T01:34:54.891Z,15.60
2018-06-01T01:37:32.160Z,15.43
2018-06-01T01:40:00.241Z,15.23
2018-06-01T01:42:28.313Z,15.93
2018-06-01T01:44:56.476Z,15.63
2018-06-01T01:47:24.464Z,14.97
2018-06-01T01:49:54.794Z,14.83
2018-06-01T01:52:22.873Z,15.32
2018-06-01T01:54:50.953Z,15.07
2018-06-01T01:57:19.007Z,14.77
2018-06-01T01:59:47.107Z,15.73
2018-06-01T02:02:15.181Z,15.73
2018-06-01T02:04:43.251Z,15.03
2018-06-01T02:07:11.332Z,15.57
2018-06-01T02:09:39.302Z,16.43
2018-06-01T02:12:08.093Z,16.63
2018-06-01T02:14:36.152Z,14.93
2018-06-01T02:17:04.229Z,17.07
2018-06-01T02:19:32.216Z,15.70
2018-06-01T02:22:00.398Z,16.00
2018-06-01T02:24:28.483Z,16.03
2018-06-01T02:26:56.461Z,15.90
2018-06-01T02:29:24.479Z,15.30
2018-06-01T02:31:52.406Z,16.17
2018-06-01T02:34:20.579Z,15.33
2018-06-01T02:36:48.653Z,16.70
2018-06-01T02:39:16.623Z,16.23
2018-06-01T02:41:45.535Z,15.50
2018-06-01T02:44:13.606Z,15.37
2018-06-01T02:46:42.602Z,15.43
2018-06-01T02:49:10.576Z,16.17
2018-06-01T02:51:38.648Z,15.87
2018-06-01T02:54:06.729Z,15.20
2018-06-01T02:56:34.704Z,15.00
2018-06-01T02:59:02.778Z,15.43
2018-06-01T03:01:30.849Z,14.73
2018-06-01T03:03:58.823Z,14.77
2018-06-01T03:06:38.673Z,14.87
2018-06-01T03:09:06.751Z,14.67
2018-06-01T03:11:34.714Z,15.33
2018-06-01T03:14:03.354Z,15.00
2018-06-01T03:16:31.272Z,14.83
2018-06-01T03:18:59.315Z,14.77
2018-06-01T03:21:27.346Z,13.50
2018-06-01T03:23:55.312Z,14.27
2018-06-01T03:26:23.385Z,14.87
2018-06-01T03:28:51.459Z,15.07
2018-06-01T03:31:19.540Z,14.23
2018-06-01T03:33:47.610Z,15.17
2018-06-01T03:36:15.755Z,15.40
2018-06-01T03:38:43.870Z,15.60
2018-06-01T03:41:11.953Z,14.93
2018-06-01T03:43:40.031Z,16.10
2018-06-01T03:46:08.099Z,15.57
2018-06-01T03:48:36.045Z,15.67
2018-06-01T03:51:03.999Z,15.57
2018-06-01T03:53:32.054Z,15.27
2018-06-01T03:56:00.088Z,16.17
2018-06-01T03:58:28.169Z,16.27
2018-06-01T04:00:56.247Z,16.17
2018-06-01T04:03:24.292Z,15.97
2018-06-01T04:05:52.285Z,16.83
2018-06-01T04:08:20.371Z,15.73
2018-06-01T04:10:48.460Z,15.60
2018-06-01T04:13:16.431Z,14.90
2018-06-01T04:15:45.086Z,15.90
2018-06-01T04:18:13.280Z,15.47
2018-06-01T04:20:41.367Z,16.60
2018-06-01T04:23:09.344Z,16.43
2018-06-01T04:25:37.417Z,17.17
2018-06-01T04:28:05.387Z,16.33
2018-06-01T04:30:33.373Z,15.87
2018-06-01T04:33:01.340Z,17.37
2018-06-01T04:35:29.410Z,16.23
2018-06-01T04:37:57.493Z,16.33
2018-06-01T04:40:25.728Z,17.43
2018-06-01T04:42:53.852Z,16.30
2018-06-01T04:45:21.931Z,17.67
2018-06-01T04:47:50.648Z,17.20
2018-06-01T04:50:18.697Z,16.40
2018-06-01T04:52:46.668Z,16.43
2018-06-01T04:55:14.738Z,16.37
2018-06-01T04:57:42.990Z,16.90
2018-06-01T05:00:11.019Z,16.23
2018-06-01T05:02:39.084Z,17.07
2018-06-01T05:05:07.160Z,17.53
2018-06-01T05:07:35.123Z,17.83
2018-06-01T05:10:03.167Z,16.83
2018-06-01T05:12:31.173Z,17.50
2018-06-01T05:14:59.963Z,18.37
2018-06-01T05:17:28.044Z,17.40
2018-06-01T05:19:56.119Z,18.50
2018-06-01T05:22:24.107Z,16.43
2018-06-01T05:24:52.167Z,17.83
2018-06-01T05:27:20.245Z,18.30
2018-06-01T05:29:48.298Z,18.47
2018-06-01T05:32:16.298Z,18.63
2018-06-01T05:34:45.103Z,18.87
2018-06-01T05:37:13.067Z,19.00
2018-06-01T05:39:41.051Z,18.20
2018-06-01T05:42:09.214Z,18.90
2018-06-01T05:44:37.299Z,17.60
2018-06-01T05:47:05.331Z,17.93
2018-06-01T05:49:33.324Z,17.90
2018-06-01T05:52:01.408Z,18.47
2018-06-01T05:54:29.420Z,19.33
2018-06-01T05:56:57.402Z,17.83
2018-06-01T05:59:25.341Z,19.07
2018-06-01T06:01:53.421Z,19.17
2018-06-01T06:04:21.489Z,19.07
2018-06-01T06:06:49.671Z,18.80
2018-06-01T06:09:17.754Z,19.00
2018-06-01T06:11:46.284Z,18.93
2018-06-01T06:14:14.323Z,18.40
2018-06-01T06:16:42.294Z,19.00
2018-06-01T06:19:11.377Z,19.13
2018-06-01T06:21:39.461Z,19.07
2018-06-01T06:24:07.539Z,19.47
2018-06-01T06:26:35.517Z,19.80
2018-06-01T06:29:03.592Z,19.17
2018-06-01T06:31:31.581Z,18.47
2018-06-01T06:33:59.587Z,18.87
2018-06-01T06:36:27.586Z,19.10
2018-06-01T06:38:55.584Z,18.10
2018-06-01T06:41:23.566Z,18.67
2018-06-01T06:43:51.541Z,18.17
2018-06-01T06:46:19.513Z,19.47
2018-06-01T06:48:47.595Z,18.70
2018-06-01T06:51:15.658Z,19.10
2018-06-01T06:53:43.636Z,19.40
2018-06-01T06:56:11.822Z,17.67
2018-06-01T06:58:39.887Z,18.23
2018-06-01T07:01:07.860Z,17.83
2018-06-01T07:03:36.148Z,17.80
2018-06-01T07:06:04.331Z,16.77
2018-06-01T07:08:32.383Z,15.47
2018-06-01T07:11:00.484Z,16.37
2018-06-01T07:13:29.616Z,16.37
2018-06-01T07:15:57.661Z,15.57
2018-06-01T07:18:25.628Z,16.37
2018-06-01T07:20:53.709Z,15.63
2018-06-01T07:23:21.863Z,15.97
2018-06-01T07:25:50.683Z,16.77
2018-06-01T07:28:18.750Z,15.93
2018-06-01T07:30:46.837Z,18.10
2018-06-01T07:33:14.913Z,13.80
2018-06-01T07:35:42.883Z,15.07
2018-06-01T07:38:10.954Z,14.03
2018-06-01T07:40:38.955Z,12.00
2018-06-01T07:43:07.004Z,20.93
2018-06-01T07:45:34.976Z,17.40
2018-06-01T07:48:03.669Z,13.07
2018-06-01T07:50:31.851Z,16.20
2018-06-01T07:52:59.888Z,13.77
2018-06-01T07:55:27.849Z,14.93
2018-06-01T07:57:55.876Z,18.23
2018-06-01T08:00:24.049Z,16.83
2018-06-01T08:02:52.123Z,20.67
2018-06-01T08:05:20.205Z,15.53
2018-06-01T08:07:48.173Z,14.20
2018-06-01T08:10:16.363Z,13.80
2018-06-01T08:12:44.435Z,13.73
2018-06-01T08:15:12.873Z,13.30
2018-06-01T08:17:40.996Z,16.10
2018-06-01T08:20:09.079Z,17.93
2018-06-01T08:22:37.858Z,13.43
2018-06-01T08:25:06.702Z,14.20
2018-06-01T08:27:35.652Z,14.40
2018-06-01T08:30:03.800Z,12.60
2018-06-01T08:32:32.132Z,14.37
2018-06-01T08:35:00.196Z,12.57
2018-06-01T08:37:28.934Z,10.97
2018-06-01T08:39:57.113Z,14.40
2018-06-01T08:42:25.138Z,11.30
2018-06-01T08:44:53.208Z,10.60
2018-06-01T08:47:21.288Z,11.83
2018-06-01T08:49:49.364Z,11.17
2018-06-01T08:52:17.548Z,11.67
2018-06-01T08:54:45.718Z,12.57
2018-06-01T08:57:13.809Z,10.77
2018-06-01T08:59:41.872Z,11.23
2018-06-01T09:02:10.251Z,11.53
2018-06-01T09:04:38.448Z,10.00
2018-06-01T09:07:06.617Z,12.33
2018-06-01T09:09:34.693Z,12.37
2018-06-01T09:12:02.873Z,11.77
2018-06-01T09:14:31.009Z,9.83
2018-06-01T09:16:58.968Z,12.67
2018-06-01T09:19:27.885Z,10.93
2018-06-01T09:21:55.952Z,10.77
2018-06-01T09:24:24.169Z,10.63
2018-06-01T09:26:52.253Z,10.00
2018-06-01T09:29:21.451Z,9.80
2018-06-01T09:31:49.484Z,10.60
2018-06-01T09:34:17.513Z,10.90
2018-06-01T09:36:45.581Z,10.13
2018-06-01T09:39:13.653Z,10.50
2018-06-01T10:17:15.029Z,7.60
2018-06-01T10:19:44.041Z,8.17
2018-06-01T10:22:12.118Z,8.70
2018-06-01T10:24:40.229Z,12.40
2018-06-01T10:27:08.302Z,9.73
2018-06-01T10:29:36.377Z,8.37
2018-06-01T10:32:04.463Z,12.50
2018-06-01T10:34:32.504Z,11.33
2018-06-01T10:37:00.514Z,8.93
2018-06-01T10:39:28.624Z,7.70
2018-06-01T10:41:56.656Z,8.13
2018-06-01T10:44:24.667Z,11.07
2018-06-01T10:46:52.759Z,9.47
2018-06-01T10:49:20.759Z,9.40
2018-06-01T10:51:48.879Z,7.07
2018-06-01T10:54:16.941Z,7.20
2018-06-01T10:56:44.915Z,7.95
2018-06-01T10:59:12.993Z,10.75
2018-06-01T11:01:41.264Z,8.27
2018-06-01T11:04:09.344Z,8.90
2018-06-01T11:06:37.522Z,6.28
2018-06-01T11:09:06.015Z,8.60
2018-06-01T11:11:34.085Z,9.40
2018-06-01T11:14:02.159Z,6.18
2018-06-01T11:16:30.454Z,8.70
2018-06-01T11:18:59.571Z,9.25
2018-06-01T11:21:27.705Z,11.90
2018-06-01T11:23:55.690Z,8.95
2018-06-01T11:26:23.776Z,11.45
2018-06-01T11:28:51.844Z,10.52
2018-06-01T11:31:19.934Z,8.30
2018-06-01T11:33:48.974Z,8.02
2018-06-01T11:36:16.996Z,9.82
2018-06-01T11:38:45.080Z,6.90
2018-06-01T11:41:13.044Z,13.82
2018-06-01T11:43:41.121Z,6.47
2018-06-01T11:46:09.193Z,6.97
2018-06-01T11:48:37.181Z,9.40
2018-06-01T11:51:05.254Z,6.20
2018-06-01T11:53:33.445Z,11.88
2018-06-01T11:56:01.484Z,12.60
2018-06-01T11:58:29.482Z,8.63
2018-06-01T12:00:57.562Z,7.78
2018-06-01T12:03:25.633Z,8.85
2018-06-01T12:05:53.674Z,5.55
2018-06-01T12:08:21.797Z,11.68
2018-06-01T12:10:49.766Z,5.53
2018-06-01T12:13:17.729Z,6.07
2018-06-01T12:15:46.897Z,5.05
2018-06-01T12:18:14.800Z,8.63
2018-06-01T12:20:42.881Z,6.32
2018-06-01T12:23:10.915Z,5.53
2018-06-01T12:25:39.041Z,7.35
2018-06-01T12:28:07.005Z,6.50
2018-06-01T12:30:35.066Z,13.30
2018-06-01T12:33:04.082Z,6.18
2018-06-01T12:35:32.256Z,7.72
2018-06-01T12:38:00.294Z,5.15
2018-06-01T12:40:28.424Z,3.75
2018-06-01T12:42:56.489Z,3.97
2018-06-01T12:45:24.677Z,4.05
2018-06-01T12:47:52.711Z,3.33
2018-06-01T12:50:20.961Z,4.20
2018-06-01T12:52:49.100Z,3.70
2018-06-01T12:55:17.085Z,3.78
2018-06-01T12:57:45.157Z,3.80
2018-06-01T13:00:13.226Z,3.60
2018-06-01T13:04:27.938Z,3.80
2018-06-01T13:06:56.115Z,3.90
2018-06-01T13:09:24.089Z,3.58
2018-06-01T13:11:52.268Z,3.70
2018-06-01T13:14:20.643Z,3.70
2018-06-01T13:16:49.502Z,3.50
2018-06-01T13:19:17.627Z,3.60
2018-06-01T13:21:48.151Z,3.97
2018-06-01T13:24:16.137Z,4.15
2018-06-01T13:26:44.206Z,3.92
2018-06-01T13:29:12.238Z,3.62
2018-06-01T13:31:40.411Z,3.80
2018-06-01T13:34:08.434Z,3.70
2018-06-01T13:36:36.817Z,4.40
2018-06-01T13:39:07.640Z,3.95
2018-06-01T13:41:35.731Z,3.70
2018-06-01T13:44:03.907Z,3.97
2018-06-01T13:46:31.999Z,3.50
2018-06-01T13:49:00.061Z,3.70
2018-06-01T13:51:28.249Z,3.65
2018-06-01T13:53:56.298Z,3.90
2018-06-01T13:56:24.301Z,3.28
2018-06-01T13:58:52.583Z,3.87
2018-06-01T14:01:20.757Z,3.67
2018-06-01T14:03:49.849Z,3.80
2018-06-01T14:06:17.929Z,4.35
2018-06-01T14:08:46.013Z,4.20
2018-06-01T14:11:14.699Z,3.97
2018-06-01T14:13:42.778Z,3.72
2018-06-01T14:16:10.950Z,3.58
2018-06-01T14:18:39.083Z,3.80
2018-06-01T14:21:07.615Z,4.00
2018-06-01T14:23:36.782Z,4.30
2018-06-01T14:26:04.904Z,12.25
2018-06-01T14:28:32.914Z,3.97
2018-06-01T14:31:00.950Z,3.87
2018-06-01T14:33:29.016Z,4.22
2018-06-01T14:35:58.109Z,4.55
2018-06-01T14:38:26.298Z,4.43
2018-06-01T14:58:20.427Z,4.05
2018-06-01T15:00:48.603Z,4.07
2018-06-01T15:03:16.576Z,3.87
2018-06-01T15:05:44.660Z,3.75
2018-06-01T15:08:12.643Z,4.20
2018-06-01T15:10:40.707Z,3.78
2018-06-01T15:13:08.717Z,4.00
2018-06-01T15:15:36.765Z,4.40
2018-06-01T15:18:04.774Z,4.28
2018-06-01T15:20:34.074Z,4.40
2018-06-01T15:23:02.121Z,4.78
2018-06-01T15:25:30.183Z,5.47
2018-06-01T15:27:58.464Z,5.72
2018-06-01T15:30:26.551Z,6.03
2018-06-01T15:32:54.616Z,6.03
2018-06-01T15:35:22.708Z,6.35
2018-06-01T15:37:50.667Z,6.20
2018-06-01T15:40:19.667Z,7.20
2018-06-01T15:42:47.756Z,6.90
2018-06-01T15:45:15.823Z,6.82
2018-06-01T15:47:43.865Z,7.37
2018-06-01T15:50:12.886Z,7.18
2018-06-01T15:52:40.974Z,7.63
2018-06-01T15:55:09.015Z,7.60
2018-06-01T15:57:37.126Z,8.47
2018-06-01T16:00:05.705Z,7.37
2018-06-01T16:02:33.767Z,8.27
2018-06-01T16:05:01.828Z,7.93
2018-06-01T16:07:29.843Z,9.03
2018-06-01T16:09:57.912Z,8.20
2018-06-01T16:12:26.007Z,7.40
2018-06-01T16:14:54.073Z,9.07
2018-06-01T16:17:22.223Z,10.73
2018-06-01T16:19:50.324Z,14.00
2018-06-01T16:22:19.119Z,12.13
2018-06-01T16:24:47.848Z,11.00
2018-06-01T16:27:16.188Z,10.80
2018-06-01T16:29:44.370Z,12.53
2018-06-01T16:32:12.447Z,14.87
2018-06-01T16:34:40.517Z,14.23
2018-06-01T16:37:08.548Z,14.77
2018-06-01T16:39:36.583Z,16.17
2018-06-01T16:42:04.648Z,15.30
2018-06-01T16:44:32.678Z,10.93
2018-06-01T16:47:00.693Z,13.47
2018-06-01T16:49:28.857Z,13.90
2018-06-01T16:51:56.852Z,13.93
2018-06-01T16:54:24.929Z,6.70
2018-06-01T16:56:52.999Z,11.73
2018-06-01T16:59:22.111Z,12.27
2018-06-01T17:01:50.996Z,12.27
2018-06-01T17:04:19.062Z,13.03
2018-06-01T17:06:47.148Z,14.40
2018-06-01T17:09:15.282Z,15.00
2018-06-01T17:11:43.300Z,16.20
2018-06-01T17:14:11.370Z,16.37
2018-06-01T17:16:39.452Z,14.30
2018-06-01T17:19:07.926Z,11.53
2018-06-01T17:21:36.005Z,10.90
2018-06-01T17:24:04.148Z,9.07
2018-06-01T17:26:32.168Z,8.17
2018-06-01T17:29:00.287Z,8.37
2018-06-01T17:31:28.536Z,7.87
2018-06-01T17:33:56.602Z,7.63
2018-06-01T17:36:24.682Z,7.83
2018-06-01T17:38:52.753Z,8.80
2018-06-01T17:41:20.737Z,8.50
2018-06-01T17:43:48.801Z,10.03
2018-06-01T17:46:17.213Z,10.60
2018-06-01T17:48:45.365Z,10.20
2018-06-01T17:51:13.445Z,10.80
2018-06-01T17:53:41.516Z,10.73
2018-06-01T17:56:10.593Z,11.90
2018-06-01T17:58:38.612Z,12.53
2018-06-01T18:01:06.782Z,15.82
2018-06-01T18:03:34.850Z,15.40
2018-06-01T18:06:02.920Z,13.37
2018-06-01T18:08:30.998Z,15.53
2018-06-01T18:10:59.090Z,16.77
2018-06-01T18:13:27.157Z,15.87
2018-06-01T18:15:56.295Z,15.63
2018-06-01T18:18:24.437Z,15.03
2018-06-01T18:20:52.481Z,19.20
2018-06-01T18:23:20.486Z,19.20
2018-06-01T18:25:49.636Z,21.27
2018-06-01T18:28:17.655Z,34.97
2018-06-01T18:30:45.796Z,29.10
2018-06-01T18:33:13.819Z,32.83
2018-06-01T18:35:41.893Z,31.47
2018-06-01T18:38:09.919Z,32.73
2018-06-01T18:40:38.146Z,27.93
2018-06-01T18:43:06.248Z,26.33
2018-06-01T18:45:34.192Z,22.97
2018-06-01T18:48:02.269Z,20.47
2018-06-01T18:50:31.433Z,18.97
2018-06-01T18:52:59.446Z,17.23
2018-06-01T18:55:27.517Z,16.67
2018-06-01T18:57:55.598Z,17.03
2018-06-01T19:00:23.785Z,15.50
2018-06-01T19:02:51.858Z,13.07
2018-06-01T19:05:19.920Z,17.00
2018-06-01T19:07:48.001Z,17.93
2018-06-01T19:10:17.671Z,16.80
2018-06-01T19:12:45.705Z,15.30
2018-06-01T19:15:13.777Z,16.67
2018-06-01T19:17:41.946Z,15.37
2018-06-01T19:20:10.024Z,14.33
2018-06-01T19:22:38.047Z,14.73
2018-06-01T19:25:07.311Z,15.23
2018-06-01T19:27:35.475Z,16.67
2018-06-01T19:30:03.763Z,15.60
2018-06-01T19:32:31.933Z,14.87
2018-06-01T19:35:00.222Z,15.67
2018-06-01T19:37:28.265Z,16.20
2018-06-01T19:39:56.384Z,17.10
2018-06-01T19:42:24.454Z,16.33
2018-06-01T19:44:52.636Z,15.77
2018-06-01T19:47:21.529Z,15.37
2018-06-01T19:49:49.617Z,16.50
2018-06-01T19:52:18.509Z,15.97
2018-06-01T19:54:46.779Z,16.70
2018-06-01T19:57:14.859Z,18.03
2018-06-01T19:59:42.927Z,18.67
2018-06-01T20:02:11.011Z,18.50
2018-06-01T20:04:39.058Z,18.20
2018-06-01T20:07:07.053Z,20.77
2018-06-01T20:09:35.117Z,20.27
2018-06-01T20:12:03.218Z,22.00
2018-06-01T20:14:31.694Z,24.73
2018-06-01T20:16:59.835Z,23.43
2018-06-01T20:19:27.855Z,21.90
2018-06-01T20:21:55.927Z,22.00
2018-06-01T20:24:25.839Z,21.97
2018-06-01T20:26:54.012Z,23.97
2018-06-01T20:29:23.024Z,23.10
2018-06-01T20:31:51.103Z,22.83
2018-06-01T20:34:19.194Z,23.40
2018-06-01T20:36:47.211Z,24.10
2018-06-01T20:39:15.323Z,21.90
2018-06-01T20:41:43.401Z,23.80
2018-06-01T20:44:11.477Z,23.23
2018-06-01T20:46:39.637Z,23.17
2018-06-01T20:49:07.743Z,21.57
2018-06-01T20:51:35.804Z,22.57
2018-06-01T20:54:03.890Z,24.03
2018-06-01T20:56:31.937Z,24.13
2018-06-01T20:58:59.947Z,25.30
2018-06-01T21:01:28.088Z,24.47
2018-06-01T21:03:56.198Z,26.23
2018-06-01T21:06:24.260Z,24.97
2018-06-01T21:08:52.345Z,26.27
2018-06-01T21:11:20.374Z,25.47
2018-06-01T21:13:48.396Z,25.30
2018-06-01T21:16:16.469Z,24.27
2018-06-01T21:18:44.559Z,23.73
2018-06-01T21:21:12.653Z,23.17
2018-06-01T21:23:40.811Z,22.00
2018-06-01T21:26:08.890Z,20.73
2018-06-01T21:28:36.848Z,19.97
2018-06-01T21:31:06.051Z,22.77
2018-06-01T21:33:34.022Z,23.27
2018-06-01T21:36:02.104Z,23.03
2018-06-01T21:38:30.182Z,23.07
2018-06-01T21:40:58.162Z,23.00
2018-06-01T21:43:26.239Z,21.30
2018-06-01T21:45:54.307Z,23.60
2018-06-01T21:48:22.365Z,23.60
2018-06-01T21:50:50.463Z,23.60
2018-06-01T21:53:18.536Z,25.73
2018-06-01T21:55:46.535Z,27.33
2018-06-01T21:58:14.688Z,27.63
2018-06-01T22:00:42.766Z,30.63
2018-06-01T22:03:10.785Z,29.10
2018-06-01T22:05:38.815Z,29.20
2018-06-01T22:08:07.001Z,28.63
2018-06-01T22:10:35.038Z,26.43
2018-06-01T22:13:03.146Z,27.03
2018-06-01T22:15:31.224Z,25.80
2018-06-01T22:17:59.307Z,25.20
2018-06-01T22:20:27.678Z,23.10
2018-06-01T22:22:55.757Z,22.43
2018-06-01T22:25:24.738Z,21.63
2018-06-01T22:27:52.730Z,23.07
2018-06-01T22:30:20.798Z,23.47
2018-06-01T22:32:48.929Z,23.17
2018-06-01T22:35:16.845Z,21.33
2018-06-01T22:37:44.872Z,20.70
2018-06-01T22:40:12.875Z,20.73
2018-06-01T22:42:41.001Z,19.37
2018-06-01T22:45:10.086Z,19.13
2018-06-01T22:47:38.015Z,19.80
2018-06-01T22:50:06.020Z,19.20
2018-06-01T22:52:34.209Z,19.27
2018-06-01T22:55:02.287Z,19.30
2018-06-01T22:57:30.358Z,19.27
2018-06-01T22:59:58.500Z,19.60
2018-06-01T23:02:26.521Z,20.33
2018-06-01T23:04:54.594Z,19.57
2018-06-01T23:07:22.663Z,19.77
2018-06-01T23:09:50.749Z,19.17
2018-06-01T23:12:18.815Z,19.00
2018-06-01T23:14:47.004Z,18.50
2018-06-01T23:17:14.978Z,18.17
2018-06-01T23:19:43.081Z,17.73
2018-06-01T23:22:11.322Z,19.05
2018-06-01T23:24:39.410Z,19.30
2018-06-01T23:27:07.481Z,19.10
2018-06-01T23:29:35.569Z,21.03
2018-06-01T23:32:03.634Z,20.87
2018-06-01T23:34:32.239Z,21.03
2018-06-01T23:37:00.278Z,20.87
2018-06-01T23:39:28.244Z,20.77
2018-06-01T23:41:56.314Z,21.90
2018-06-01T23:44:24.384Z,21.20
2018-06-01T23:46:52.512Z,21.57
2018-06-01T23:49:20.587Z,21.40
2018-06-01T23:51:48.660Z,23.00
2018-06-01T23:54:16.734Z,22.23
2018-06-01T23:56:44.810Z,23.17
2018-06-01T23:59:12.980Z,23.87
